CYZP

Sandspit Airport

Sandspit, , Canada
METAR CYZP 232310Z AUTO 12027G35KT 3SM -RA BR BKN010 OVC013 06/06 A2923 RMK SLP900
Observed Flight Rules
Jan-23 @ 23:10 UTC (36 minutes ago) Marginal Visual Flight Rules
Wind Visibility Clouds Conditions
120° at 27 knots
 Gusting to 35 knots
3 miles
  • Broken at 1,000' AGL
  • Overcast at 1,300' AGL
  • Light Rain
  • Mist
Temperatures Readings
Current 6°C / 43°F
Dewpoint 6°C / 43°F
Humidity 100%
Altimeter 29.23" Hg
Pressure 990 hPa
Elevation 6
METAR CYZP 232310Z AUTO 12027G35KT 3SM -RA BR BKN010 OVC013 06/06 A2923 RMK SLP900
Observed Flight Rules
Jan-23 @ 23:10 UTC
(36 minutes ago)
MVFR
Wind Visibility
120° at 27 knots
 Gusting to 35 knots
3 miles
Clouds
  • Broken at 1,000' AGL
  • Overcast at 1,300' AGL
Conditions
  • Light Rain
  • Mist
Temperature Dewpoint
6°C / 43°F 6°C / 43°F
Humidity Altimeter Pressure
100% 29.23" Hg 990 hPa